Grand Teton National Park, WY

12:14 PM MDT on October 20, 2014 (GMT -0600)
Dubois Muni, Dubois, WY | Change Station
CLOSE
Current Station
Airport
Location: Dubois Muni, Dubois, WY,
Elevation: 7297 ft
Nearby Weather Stations

Elev 7297 ft 43.55 °N, 109.69 °W | Updated 19 minutes ago

Clear
Clear
63 °F
Feels Like 63 °F
N
14
Wind Variable Wind from WSW

Today
High -- | Low -- °F
--% Chance of Precip.
Yesterday
High -- | Low -- °F
Precip. -- in
7:42 AM 6:29 PM
Waning Crescent, 10% visible
Pressure 30.14 in
Visibility 10.0 miles
Clouds Clear
Dew Point 23 °F
Humidity 22%
Rainfall 0.00 in
Snow Depth 0 in , 0 in , 0 in
UV 4 out of 12
Pollen 2.60 out of 12
Air Quality Not available.
Flu Activity Sporadic
METAR KDUB 201755Z AUTO 25012KT 10SM CLR 17/M05 A3014 RMK AO2

More Conditions Fewer Conditions

Pressure 30.14 in
Visibility 10.0 miles
Clouds Clear
Dew Point 23 °F
Humidity 22%
Rainfall 0.00 in
Snow Depth 0 in , 0 in , 0 in
UV 4 out of 12
Pollen 2.60 out of 12
Air Quality Not available.
Flu Activity Sporadic
METAR KDUB 201755Z AUTO 25012KT 10SM CLR 17/M05 A3014 RMK AO2

More Conditions Fewer Conditions

10-Day Weather Forecast

Almanac

Astronomy

Oct. 20, 2014 Rise Set
Actual Time 7:42 AM MDT 6:29 PM MDT
Civil Twilight 7:12 AM MDT 6:58 PM MDT
Nautical Twilight 6:39 AM MDT 7:32 PM MDT
Astronomical Twilight 6:05 AM MDT 8:05 PM MDT
Moon 4:27 AM MDT 4:58 PM MDT
Length of Visible Light 11h 45m
Length of Day
10h 47m
Waning Crescent, 10% of the Moon is Illuminated
Today
Waning Crescent
Oct 23
New
Oct 30
First Quarter
Nov 6
Full
Nov 14
Last Quarter

Today's Extremes

State Highs State Lows

Community

WunderPhotos

Upload Photos

1,763,456 photos uploaded!

Nearby

Snow Depth

Station Depth Elevation
Base Camp 0 in 7030 ft
Two Ocean Plateau 0 in 9240 ft
Togwotee Pass 0 in 7980 ft
Gros Ventre Summit 1 in 8750 ft
Granite Creek 1 in 6770 ft

Earthquake Activity

City Distance Mag. Time & Date
No recent earthquake activity has been reported nearby.
Minimum magnitude displayed is 2.5.

Coastal Water Temperatures

Place Temperature
No Stations Reporting

Nearby Weather Stations